createdAt,value
2022-10-15T00:00:43.566Z,4.78
2022-10-15T00:03:10.791Z,3.33
2022-10-15T00:05:39.758Z,3.45
2022-10-15T00:08:08.636Z,4.13
2022-10-15T00:10:36.366Z,4.72
2022-10-15T00:13:04.201Z,3.45
2022-10-15T00:15:31.355Z,3.47
2022-10-15T00:17:58.644Z,3.88
2022-10-15T00:20:25.739Z,4.53
2022-10-15T00:22:54.190Z,3.63
2022-10-15T00:25:21.309Z,3.03
2022-10-15T00:27:48.404Z,3.70
2022-10-15T00:30:15.568Z,3.13
2022-10-15T00:32:42.681Z,4.05
2022-10-15T00:35:10.464Z,3.13
2022-10-15T00:37:37.571Z,3.65
2022-10-15T00:40:07.237Z,2.70
2022-10-15T00:42:34.332Z,3.92
2022-10-15T00:45:01.437Z,2.95
2022-10-15T00:47:34.753Z,3.55
2022-10-15T00:50:06.019Z,3.57
2022-10-15T00:52:39.844Z,3.70
2022-10-15T00:55:12.403Z,5.70
2022-10-15T00:57:40.735Z,3.83
2022-10-15T01:00:10.770Z,3.42
2022-10-15T01:02:37.899Z,3.13
2022-10-15T01:05:06.355Z,3.08
2022-10-15T01:07:33.523Z,3.13
2022-10-15T01:10:01.553Z,2.63
2022-10-15T01:12:44.313Z,2.85
2022-10-15T01:15:19.650Z,2.88
2022-10-15T01:17:50.930Z,3.63
2022-10-15T01:20:44.413Z,3.45
2022-10-15T01:23:31.472Z,4.07
2022-10-15T01:26:16.406Z,3.03
2022-10-15T01:28:50.968Z,4.57
2022-10-15T01:31:25.195Z,3.45
2022-10-15T01:36:34.256Z,3.40
2022-10-15T01:39:09.461Z,3.92
2022-10-15T01:41:42.184Z,3.35
2022-10-15T01:44:13.052Z,3.22
2022-10-15T01:46:46.909Z,3.00
2022-10-15T01:49:17.200Z,2.28
2022-10-15T01:51:44.880Z,2.40
2022-10-15T01:54:16.648Z,2.50
2022-10-15T01:56:45.691Z,3.25
2022-10-15T01:59:13.297Z,3.20
2022-10-15T02:04:21.048Z,2.80
2022-10-15T02:06:53.318Z,3.70
2022-10-15T02:09:30.768Z,3.08
2022-10-15T02:12:07.040Z,4.35
2022-10-15T02:14:42.560Z,3.22
2022-10-15T02:17:11.623Z,3.60
2022-10-15T02:19:44.115Z,2.55
2022-10-15T02:22:16.620Z,2.70
2022-10-15T02:24:53.060Z,3.85
2022-10-15T02:27:24.563Z,2.53
2022-10-15T02:29:53.939Z,2.92
2022-10-15T02:32:23.588Z,2.90
2022-10-15T02:34:52.536Z,2.55
2022-10-15T02:37:22.392Z,2.75
2022-10-15T02:39:49.583Z,3.58
2022-10-15T02:42:18.007Z,2.30
2022-10-15T02:44:45.384Z,2.72
2022-10-15T02:47:12.842Z,3.22
2022-10-15T02:49:41.363Z,2.72
2022-10-15T02:52:08.560Z,2.63
2022-10-15T02:54:35.685Z,2.95
2022-10-15T02:57:02.852Z,3.70
2022-10-15T02:59:29.972Z,2.78
2022-10-15T03:01:57.081Z,3.13
2022-10-15T03:04:24.299Z,2.83
2022-10-15T03:06:52.748Z,2.83
2022-10-15T03:09:19.855Z,2.92
2022-10-15T03:11:46.962Z,2.80
2022-10-15T03:14:14.451Z,2.65
2022-10-15T03:16:41.587Z,2.63
2022-10-15T03:19:09.057Z,2.42
2022-10-15T03:21:36.232Z,3.00
2022-10-15T03:24:05.243Z,2.83
2022-10-15T03:26:32.375Z,2.38
2022-10-15T03:28:59.489Z,2.72
2022-10-15T03:31:26.591Z,2.63
2022-10-15T03:33:53.679Z,3.13
2022-10-15T03:36:20.832Z,2.28
2022-10-15T03:38:47.921Z,2.17
2022-10-15T03:41:16.381Z,3.30
2022-10-15T03:43:43.507Z,2.15
2022-10-15T03:46:10.737Z,2.28
2022-10-15T03:48:38.021Z,3.30
2022-10-15T03:51:05.560Z,2.92
2022-10-15T03:53:32.658Z,2.92
2022-10-15T03:56:03.610Z,2.78
2022-10-15T03:58:32.287Z,2.90
2022-10-15T04:00:59.455Z,3.50
2022-10-15T04:03:26.604Z,4.32
2022-10-15T04:05:54.748Z,5.22
2022-10-15T04:08:23.105Z,2.83
2022-10-15T04:10:51.117Z,5.57
2022-10-15T04:13:18.214Z,3.20
2022-10-15T04:15:46.661Z,2.60
2022-10-15T04:18:14.215Z,2.25
2022-10-15T04:20:41.458Z,4.10
2022-10-15T04:23:08.649Z,2.95
2022-10-15T04:25:36.412Z,3.60
2022-10-15T04:28:03.826Z,2.75
2022-10-15T04:30:30.968Z,3.13
2022-10-15T04:32:59.416Z,3.05
2022-10-15T04:35:26.538Z,1.42
2022-10-15T04:37:53.634Z,2.00
2022-10-15T04:40:20.740Z,2.40
2022-10-15T04:42:47.894Z,3.42
2022-10-15T04:45:15.233Z,2.63
2022-10-15T04:47:42.871Z,3.05
2022-10-15T04:50:11.527Z,4.05
2022-10-15T04:52:38.645Z,3.53
2022-10-15T04:55:06.754Z,4.03
2022-10-15T04:57:33.977Z,2.90
2022-10-15T05:00:01.082Z,2.97
2022-10-15T05:02:28.234Z,3.10
2022-10-15T05:04:55.488Z,2.83
2022-10-15T05:07:24.191Z,3.20
2022-10-15T05:09:51.434Z,2.95
2022-10-15T05:12:18.571Z,2.58
2022-10-15T05:14:45.672Z,2.50
2022-10-15T05:17:12.776Z,2.97
2022-10-15T05:19:40.035Z,3.78
2022-10-15T05:22:07.132Z,2.97
2022-10-15T05:24:35.570Z,2.38
2022-10-15T05:27:03.236Z,2.33
2022-10-15T05:29:30.496Z,3.42
2022-10-15T05:31:57.580Z,5.18
2022-10-15T05:34:24.910Z,2.40
2022-10-15T05:36:52.017Z,3.55
2022-10-15T05:39:19.198Z,4.22
2022-10-15T05:41:47.701Z,2.90
2022-10-15T05:44:15.310Z,2.20
2022-10-15T05:46:42.608Z,2.47
2022-10-15T05:49:09.712Z,4.47
2022-10-15T05:51:37.719Z,2.17
2022-10-15T05:54:04.825Z,2.28
2022-10-15T05:56:31.944Z,2.08
2022-10-15T05:59:00.398Z,2.20
2022-10-15T06:01:27.590Z,2.17
2022-10-15T06:03:54.744Z,2.22
2022-10-15T06:06:23.384Z,2.42
2022-10-15T06:08:50.874Z,2.50
2022-10-15T06:11:18.352Z,1.90
2022-10-15T06:13:46.719Z,2.17
2022-10-15T06:16:19.515Z,4.25
2022-10-15T06:18:51.665Z,2.78
2022-10-15T06:21:18.773Z,3.47
2022-10-15T06:23:45.872Z,2.85
2022-10-15T06:26:13.072Z,3.22
2022-10-15T06:28:40.242Z,2.13
2022-10-15T06:31:07.898Z,2.58
2022-10-15T06:33:36.710Z,2.50
2022-10-15T06:36:06.054Z,2.10
2022-10-15T06:38:33.410Z,2.85
2022-10-15T06:41:03.488Z,2.92
2022-10-15T06:43:31.222Z,2.75
2022-10-15T06:46:01.262Z,2.90
2022-10-15T06:48:28.416Z,2.47
2022-10-15T06:50:58.167Z,2.97
2022-10-15T06:53:25.271Z,2.22
2022-10-15T06:55:55.808Z,3.50
2022-10-15T06:58:22.926Z,2.53
2022-10-15T07:00:50.098Z,2.28
2022-10-15T07:03:17.270Z,2.60
2022-10-15T07:05:44.367Z,2.83
2022-10-15T07:08:16.859Z,2.15
2022-10-15T07:10:47.271Z,2.88
2022-10-15T07:13:14.388Z,1.90
2022-10-15T07:15:41.499Z,2.50
2022-10-15T07:18:08.621Z,1.92
2022-10-15T07:20:35.704Z,2.08
2022-10-15T07:23:03.320Z,2.63
2022-10-15T07:25:32.002Z,2.85
2022-10-15T07:27:59.146Z,4.22
2022-10-15T07:30:26.352Z,7.43
2022-10-15T07:32:53.540Z,2.38
2022-10-15T07:35:20.629Z,3.97
2022-10-15T07:37:47.716Z,2.13
2022-10-15T07:40:14.996Z,3.47
2022-10-15T07:42:43.628Z,4.18
2022-10-15T07:45:11.172Z,3.97
2022-10-15T07:47:40.285Z,4.20
2022-10-15T07:50:07.985Z,3.58
2022-10-15T07:52:35.088Z,2.60
2022-10-15T07:55:02.248Z,3.05
2022-10-15T07:57:29.344Z,3.03
2022-10-15T07:59:57.804Z,4.82
2022-10-15T08:02:25.263Z,3.03
2022-10-15T08:04:52.575Z,3.55
2022-10-15T08:07:19.677Z,4.05
2022-10-15T08:12:18.736Z,5.25
2022-10-15T08:14:46.701Z,5.93
2022-10-15T08:17:15.199Z,3.08
2022-10-15T08:19:42.286Z,3.65
2022-10-15T08:22:09.543Z,4.22
2022-10-15T08:24:36.665Z,4.63
2022-10-15T08:27:03.854Z,1.67
2022-10-15T08:29:30.954Z,3.05
2022-10-15T08:31:58.070Z,2.25
2022-10-15T08:34:26.637Z,1.98
2022-10-15T08:36:53.762Z,3.10
2022-10-15T08:39:20.866Z,1.83
2022-10-15T08:41:51.687Z,1.45
2022-10-15T08:44:24.930Z,1.05
2022-10-15T08:46:56.172Z,1.10
2022-10-15T08:49:35.530Z,1.67
2022-10-15T08:52:08.459Z,1.30
2022-10-15T08:54:36.164Z,1.40
2022-10-15T08:57:16.957Z,1.17
2022-10-15T08:59:53.476Z,2.70
2022-10-15T09:02:25.617Z,0.93
2022-10-15T09:05:01.744Z,1.38
2022-10-15T09:07:36.592Z,1.52
2022-10-15T09:10:14.958Z,0.85
2022-10-15T09:12:48.608Z,1.38
2022-10-15T09:15:22.629Z,2.88
2022-10-15T09:17:54.485Z,1.40
2022-10-15T09:20:31.026Z,1.17
2022-10-15T09:22:58.410Z,1.25
2022-10-15T09:25:32.411Z,1.58
2022-10-15T09:28:06.316Z,0.95
2022-10-15T09:30:40.495Z,1.10
2022-10-15T09:35:45.227Z,1.20
2022-10-15T09:38:28.589Z,1.15
2022-10-15T09:41:12.997Z,1.13
2022-10-15T09:46:08.911Z,0.45
2022-10-15T09:48:41.216Z,1.55
2022-10-15T09:51:21.272Z,1.52
2022-10-15T09:53:59.505Z,0.70
2022-10-15T09:56:31.977Z,1.00
2022-10-15T09:59:00.232Z,1.65
2022-10-15T10:01:29.451Z,0.60
2022-10-15T10:04:12.060Z,2.95
2022-10-15T10:06:49.955Z,1.55
2022-10-15T10:09:20.092Z,1.75
2022-10-15T10:11:50.235Z,0.82
2022-10-15T10:14:29.820Z,1.15
2022-10-15T10:17:13.646Z,1.40
2022-10-15T10:19:40.815Z,0.63
2022-10-15T10:22:15.581Z,0.73
2022-10-15T10:24:42.889Z,0.70
2022-10-15T10:27:22.134Z,0.60
2022-10-15T10:29:54.583Z,1.30
2022-10-15T10:32:23.962Z,0.90
2022-10-15T10:34:52.865Z,1.55
2022-10-15T10:37:22.747Z,0.93
2022-10-15T10:39:54.626Z,1.58
2022-10-15T10:42:32.743Z,0.60
2022-10-15T10:45:18.791Z,0.80
2022-10-15T10:47:46.502Z,1.45
2022-10-15T10:50:29.937Z,1.27
2022-10-15T10:53:10.128Z,0.60
2022-10-15T10:55:39.445Z,0.52
2022-10-15T10:58:15.120Z,3.05
2022-10-15T11:00:44.019Z,0.98
2022-10-15T11:03:21.716Z,3.10
2022-10-15T11:05:54.114Z,1.67
2022-10-15T11:08:35.500Z,1.08
2022-10-15T11:11:12.470Z,0.80
2022-10-15T11:13:50.122Z,0.75
2022-10-15T11:16:23.499Z,1.05
2022-10-15T11:19:09.343Z,3.10
2022-10-15T11:21:59.724Z,1.98
2022-10-15T11:24:42.589Z,2.65
2022-10-15T11:27:38.344Z,1.15
2022-10-15T11:30:15.789Z,1.88
2022-10-15T11:33:06.676Z,1.98
2022-10-15T11:35:58.745Z,0.60
2022-10-15T11:38:34.497Z,2.92
2022-10-15T11:41:22.341Z,1.02
2022-10-15T11:44:00.557Z,2.15
2022-10-15T11:46:34.245Z,1.42
2022-10-15T11:49:18.235Z,1.13
2022-10-15T11:52:13.292Z,1.00
2022-10-15T11:54:46.763Z,0.93
2022-10-15T11:57:18.865Z,3.47
2022-10-15T11:59:51.389Z,1.30
2022-10-15T12:02:23.183Z,0.85
2022-10-15T12:04:53.620Z,2.28
2022-10-15T12:07:23.979Z,1.67
2022-10-15T12:09:55.355Z,1.25
2022-10-15T12:12:34.497Z,1.98
2022-10-15T12:15:18.403Z,1.40
2022-10-15T12:17:51.667Z,1.05
2022-10-15T12:20:21.602Z,0.93
2022-10-15T12:22:57.598Z,1.08
2022-10-15T12:25:42.781Z,1.83
2022-10-15T12:28:17.075Z,2.38
2022-10-15T12:30:57.843Z,3.30
2022-10-15T12:33:32.430Z,1.15
2022-10-15T12:36:01.540Z,1.48
2022-10-15T12:38:31.843Z,1.98
2022-10-15T12:41:02.435Z,2.65
2022-10-15T12:43:32.941Z,1.70
2022-10-15T12:46:02.659Z,4.55
2022-10-15T12:48:35.666Z,3.95
2022-10-15T12:51:39.191Z,2.20
2022-10-15T12:54:39.380Z,2.08
2022-10-15T12:57:39.789Z,1.58
2022-10-15T13:00:31.322Z,1.58
2022-10-15T13:03:09.681Z,6.43
2022-10-15T13:05:37.229Z,7.40
2022-10-15T13:08:12.555Z,1.30
2022-10-15T13:10:41.256Z,3.20
2022-10-15T13:13:15.469Z,6.43
2022-10-15T13:18:23.385Z,4.65
2022-10-15T13:20:52.439Z,1.98
2022-10-15T13:23:30.005Z,6.80
2022-10-15T13:26:12.306Z,1.95
2022-10-15T13:28:40.872Z,1.25
2022-10-15T13:31:16.013Z,2.35
2022-10-15T13:33:45.980Z,2.83
2022-10-15T13:36:21.704Z,3.90
2022-10-15T13:38:56.881Z,1.60
2022-10-15T13:41:26.941Z,2.92
2022-10-15T13:43:54.565Z,1.23
2022-10-15T13:46:25.306Z,1.30
2022-10-15T13:48:58.032Z,2.97
2022-10-15T13:51:31.785Z,3.60
2022-10-15T13:54:00.665Z,4.05
2022-10-15T13:56:30.858Z,4.25
2022-10-15T13:59:00.617Z,4.90
2022-10-15T14:01:30.453Z,3.30
2022-10-15T14:03:59.137Z,9.25
2022-10-15T14:06:27.980Z,10.07
2022-10-15T14:08:57.348Z,8.23
2022-10-15T14:11:24.981Z,9.68
2022-10-15T14:13:53.856Z,8.50
2022-10-15T14:16:24.483Z,16.77
2022-10-15T14:18:54.904Z,10.02
2022-10-15T14:21:24.404Z,12.43
2022-10-15T14:23:51.551Z,15.10
2022-10-15T14:26:24.269Z,14.43
2022-10-15T14:28:52.223Z,9.43
2022-10-15T14:31:31.880Z,13.93
2022-10-15T14:34:00.468Z,12.50
2022-10-15T14:36:29.448Z,13.93
2022-10-15T14:39:22.019Z,12.52
2022-10-15T14:41:56.295Z,12.50
2022-10-15T14:44:23.448Z,20.55
2022-10-15T14:46:58.677Z,11.38
2022-10-15T14:49:30.329Z,9.13
2022-10-15T14:52:04.524Z,22.95
2022-10-15T14:54:41.189Z,14.57
2022-10-15T14:57:18.628Z,20.40
2022-10-15T14:59:46.165Z,24.20
2022-10-15T15:02:16.300Z,17.42
2022-10-15T15:04:51.278Z,16.77
2022-10-15T15:07:20.180Z,15.95
2022-10-15T15:09:48.477Z,16.30
2022-10-15T15:12:21.681Z,22.08
2022-10-15T15:14:51.645Z,19.75
2022-10-15T15:17:20.788Z,16.13
2022-10-15T15:19:49.900Z,19.63
2022-10-15T15:22:23.805Z,15.35
2022-10-15T15:27:26.314Z,20.60
2022-10-15T15:29:54.421Z,23.60
2022-10-15T15:32:23.770Z,18.55
2022-10-15T15:34:53.797Z,10.68
2022-10-15T15:37:23.278Z,11.60
2022-10-15T15:39:50.702Z,8.07
2022-10-15T15:42:19.391Z,8.48
2022-10-15T15:44:46.993Z,4.82
2022-10-15T15:47:14.745Z,5.63
2022-10-15T15:49:42.208Z,10.13
2022-10-15T15:52:12.712Z,8.65
2022-10-15T15:54:40.591Z,10.13
2022-10-15T15:57:07.836Z,5.18
2022-10-15T15:59:35.064Z,6.10
2022-10-15T16:02:02.260Z,7.88
2022-10-15T16:04:29.468Z,8.20
2022-10-15T16:06:56.770Z,5.78
2022-10-15T16:09:27.001Z,6.22
2022-10-15T16:11:54.176Z,7.35
2022-10-15T16:14:21.280Z,10.48
2022-10-15T16:16:48.400Z,6.28
2022-10-15T16:19:15.514Z,8.98
2022-10-15T16:21:42.664Z,9.65
2022-10-15T16:24:09.768Z,8.23
2022-10-15T16:26:38.270Z,9.02
2022-10-15T16:29:05.387Z,8.63
2022-10-15T16:31:32.489Z,9.77
2022-10-15T16:33:59.591Z,9.75
2022-10-15T16:36:26.711Z,10.13
2022-10-15T16:38:53.820Z,10.88
2022-10-15T16:41:21.098Z,13.43
2022-10-15T16:43:50.149Z,12.07
2022-10-15T16:46:18.839Z,17.52
2022-10-15T16:48:51.336Z,12.35
2022-10-15T16:51:18.467Z,18.45
2022-10-15T16:53:48.599Z,12.35
2022-10-15T16:56:17.836Z,14.45
2022-10-15T16:58:45.152Z,11.38
2022-10-15T17:01:15.586Z,7.63
2022-10-15T17:03:43.261Z,12.32
2022-10-15T17:06:13.409Z,12.00
2022-10-15T17:08:43.529Z,12.90
2022-10-15T17:11:11.970Z,10.10
2022-10-15T17:13:39.318Z,13.25
2022-10-15T17:16:15.485Z,8.35
2022-10-15T17:18:43.139Z,7.32
2022-10-15T17:21:12.559Z,11.75
2022-10-15T17:23:40.060Z,10.75
2022-10-15T17:26:09.469Z,8.70
2022-10-15T17:28:37.087Z,5.82
2022-10-15T17:31:06.511Z,8.57
2022-10-15T17:33:36.285Z,10.68
2022-10-15T17:36:04.338Z,7.88
2022-10-15T17:38:31.754Z,7.50
2022-10-15T17:40:59.586Z,9.93
2022-10-15T17:43:27.262Z,12.50
2022-10-15T17:46:00.681Z,10.23
2022-10-15T17:48:28.095Z,11.95
2022-10-15T17:50:58.577Z,5.90
2022-10-15T17:53:25.792Z,6.50
2022-10-15T17:55:52.980Z,10.60
2022-10-15T17:58:20.215Z,10.85
2022-10-15T18:00:52.173Z,10.32
2022-10-15T18:03:19.276Z,14.07
2022-10-15T18:05:46.405Z,8.80
2022-10-15T18:08:15.081Z,8.82
2022-10-15T18:10:42.581Z,9.70
2022-10-15T18:13:10.212Z,11.55
2022-10-15T18:15:38.805Z,13.98
2022-10-15T18:18:06.021Z,16.77
2022-10-15T18:20:33.120Z,15.93
2022-10-15T18:23:00.228Z,10.65
2022-10-15T18:25:28.684Z,11.15
2022-10-15T18:27:55.767Z,12.30
2022-10-15T18:30:22.883Z,11.88
2022-10-15T18:32:51.261Z,35.85
2022-10-15T18:35:20.355Z,8.38
2022-10-15T18:37:47.457Z,10.07
2022-10-15T18:40:14.577Z,10.65
2022-10-15T18:42:47.547Z,12.10
2022-10-15T18:45:15.140Z,8.20
2022-10-15T18:47:42.228Z,9.63
2022-10-15T18:50:09.766Z,12.00
2022-10-15T18:52:39.860Z,8.88
2022-10-15T18:55:08.585Z,8.80
2022-10-15T18:57:35.698Z,9.73
2022-10-15T19:00:05.730Z,6.45
2022-10-15T19:02:32.840Z,8.95
2022-10-15T19:04:59.940Z,7.68
2022-10-15T19:07:30.002Z,10.85
2022-10-15T19:09:58.693Z,7.35
2022-10-15T19:12:26.130Z,6.05
2022-10-15T19:14:53.370Z,8.02
2022-10-15T19:17:21.858Z,6.75
2022-10-15T19:19:48.970Z,7.65
2022-10-15T19:22:16.326Z,5.80
2022-10-15T19:24:43.459Z,4.93
2022-10-15T19:27:10.718Z,7.72
2022-10-15T19:29:38.013Z,7.85
2022-10-15T19:32:05.538Z,5.85
2022-10-15T19:34:34.069Z,4.50
2022-10-15T19:37:01.628Z,6.85
2022-10-15T19:39:28.984Z,4.97
2022-10-15T19:41:56.082Z,5.88
2022-10-15T19:44:23.218Z,5.53
2022-10-15T19:46:50.368Z,6.57
2022-10-15T19:49:17.763Z,5.53
2022-10-15T19:51:49.225Z,7.45
2022-10-15T19:54:17.318Z,6.07
2022-10-15T19:56:44.514Z,5.15
2022-10-15T19:59:11.859Z,4.43
2022-10-15T20:01:39.159Z,8.82
2022-10-15T20:04:07.081Z,5.93
2022-10-15T20:06:35.643Z,5.68
2022-10-15T20:09:04.545Z,6.95
2022-10-15T20:11:31.924Z,5.65
2022-10-15T20:13:59.561Z,7.20
2022-10-15T20:16:28.797Z,8.55
2022-10-15T20:19:01.057Z,6.38
2022-10-15T20:21:28.217Z,4.78
2022-10-15T20:23:55.738Z,4.10
2022-10-15T20:26:24.257Z,4.20
2022-10-15T20:28:51.401Z,6.85
2022-10-15T20:31:19.750Z,5.70
2022-10-15T20:33:47.214Z,4.38
2022-10-15T20:36:17.970Z,5.85
2022-10-15T20:41:17.207Z,4.32
2022-10-15T20:43:46.413Z,3.63
2022-10-15T20:46:18.443Z,8.00
2022-10-15T20:48:46.081Z,5.22
2022-10-15T20:51:17.360Z,4.85
2022-10-15T20:53:45.533Z,4.82
2022-10-15T20:56:13.137Z,4.22
2022-10-15T20:58:40.317Z,5.68
2022-10-15T21:01:08.966Z,5.38
2022-10-15T21:03:36.193Z,4.40
2022-10-15T21:06:03.348Z,4.05
2022-10-15T21:08:30.576Z,4.35
2022-10-15T21:11:01.402Z,7.38
2022-10-15T21:13:28.536Z,5.15
2022-10-15T21:15:58.123Z,5.30
2022-10-15T21:18:27.028Z,4.40
2022-10-15T21:20:54.213Z,4.38
2022-10-15T21:23:21.363Z,5.65
2022-10-15T21:25:48.444Z,5.47
2022-10-15T21:28:15.611Z,5.85
2022-10-15T21:30:42.716Z,4.80
2022-10-15T21:33:09.832Z,4.65
2022-10-15T21:35:38.285Z,4.20
2022-10-15T21:38:05.464Z,3.47
2022-10-15T21:40:32.558Z,4.03
2022-10-15T21:42:59.640Z,3.88
2022-10-15T21:45:26.789Z,4.00
2022-10-15T21:47:53.883Z,4.22
2022-10-15T21:50:20.961Z,4.93
2022-10-15T21:52:49.441Z,5.53
2022-10-15T21:55:16.723Z,4.18
2022-10-15T21:57:43.802Z,5.55
2022-10-15T22:00:14.632Z,4.28
2022-10-15T22:02:41.737Z,4.70
2022-10-15T22:05:09.115Z,4.78
2022-10-15T22:07:38.439Z,3.30
2022-10-15T22:10:09.018Z,4.78
2022-10-15T22:12:36.226Z,4.32
2022-10-15T22:15:03.645Z,3.58
2022-10-15T22:17:30.768Z,4.45
2022-10-15T22:19:58.015Z,3.42
2022-10-15T22:22:25.295Z,5.88
2022-10-15T22:24:52.614Z,4.55
2022-10-15T22:27:21.095Z,3.22
2022-10-15T22:29:48.178Z,3.30
2022-10-15T22:32:15.270Z,5.68
2022-10-15T22:34:42.363Z,4.40
2022-10-15T22:37:09.474Z,3.65
2022-10-15T22:39:36.556Z,2.97
2022-10-15T22:42:03.883Z,4.63
2022-10-15T22:44:32.322Z,4.85
2022-10-15T22:46:59.420Z,4.68
2022-10-15T22:49:26.843Z,6.57
2022-10-15T22:51:53.938Z,3.22
2022-10-15T22:54:22.002Z,4.05
2022-10-15T22:56:50.199Z,3.42
2022-10-15T22:59:17.883Z,4.63
2022-10-15T23:01:46.439Z,4.15
2022-10-15T23:04:15.388Z,3.70
2022-10-15T23:06:42.772Z,4.18
2022-10-15T23:09:11.230Z,3.42
2022-10-15T23:11:40.101Z,4.25
2022-10-15T23:14:10.193Z,4.55
2022-10-15T23:16:39.721Z,3.00
2022-10-15T23:19:12.587Z,4.25
2022-10-15T23:21:42.551Z,3.42
2022-10-15T23:24:09.670Z,2.88
2022-10-15T23:26:37.225Z,3.58
2022-10-15T23:29:05.814Z,2.58
2022-10-15T23:31:35.007Z,2.88
2022-10-15T23:34:04.307Z,3.15
2022-10-15T23:36:34.376Z,3.85
2022-10-15T23:39:04.392Z,2.63
2022-10-15T23:41:31.821Z,3.97
2022-10-15T23:43:59.690Z,4.47
2022-10-15T23:46:27.168Z,3.90
2022-10-15T23:48:54.351Z,2.83
2022-10-15T23:51:23.720Z,3.53
2022-10-15T23:53:53.062Z,5.03
2022-10-15T23:56:21.093Z,3.08
2022-10-15T23:58:49.531Z,3.92
